sensor_id;sensor_type;location;lat;lon;timestamp;P1;durP1;ratioP1;P2;durP2;ratioP2
72524;SDS011;60547;48.502;8.996;2022-12-07T00:00:52;8.48;;;5.15;;
72524;SDS011;60547;48.502;8.996;2022-12-07T00:03:18;8.32;;;4.28;;
72524;SDS011;60547;48.502;8.996;2022-12-07T00:05:44;8.02;;;4.03;;
72524;SDS011;60547;48.502;8.996;2022-12-07T00:08:09;7.90;;;4.60;;
72524;SDS011;60547;48.502;8.996;2022-12-07T00:10:34;8.25;;;4.70;;
72524;SDS011;60547;48.502;8.996;2022-12-07T00:13:00;8.13;;;3.97;;
72524;SDS011;60547;48.502;8.996;2022-12-07T00:15:26;10.02;;;3.90;;
72524;SDS011;60547;48.502;8.996;2022-12-07T00:17:51;8.43;;;4.22;;
72524;SDS011;60547;48.502;8.996;2022-12-07T00:20:16;7.45;;;4.07;;
72524;SDS011;60547;48.502;8.996;2022-12-07T00:22:42;7.00;;;4.03;;
72524;SDS011;60547;48.502;8.996;2022-12-07T00:25:07;6.22;;;3.58;;
72524;SDS011;60547;48.502;8.996;2022-12-07T00:27:33;6.03;;;3.38;;
72524;SDS011;60547;48.502;8.996;2022-12-07T00:29:58;6.95;;;3.67;;
72524;SDS011;60547;48.502;8.996;2022-12-07T00:32:23;6.65;;;4.03;;
72524;SDS011;60547;48.502;8.996;2022-12-07T00:34:49;8.73;;;3.70;;
72524;SDS011;60547;48.502;8.996;2022-12-07T00:37:14;6.35;;;4.03;;
72524;SDS011;60547;48.502;8.996;2022-12-07T00:39:39;6.13;;;3.60;;
72524;SDS011;60547;48.502;8.996;2022-12-07T00:42:05;6.85;;;4.00;;
72524;SDS011;60547;48.502;8.996;2022-12-07T00:44:30;7.22;;;4.28;;
72524;SDS011;60547;48.502;8.996;2022-12-07T00:46:56;7.47;;;4.22;;
72524;SDS011;60547;48.502;8.996;2022-12-07T00:49:21;7.82;;;4.28;;
72524;SDS011;60547;48.502;8.996;2022-12-07T00:51:50;9.13;;;4.13;;
72524;SDS011;60547;48.502;8.996;2022-12-07T00:54:15;7.20;;;4.05;;
72524;SDS011;60547;48.502;8.996;2022-12-07T00:56:41;7.90;;;3.95;;
72524;SDS011;60547;48.502;8.996;2022-12-07T00:59:06;7.82;;;4.05;;
72524;SDS011;60547;48.502;8.996;2022-12-07T01:01:33;7.30;;;3.83;;
72524;SDS011;60547;48.502;8.996;2022-12-07T01:04:01;8.50;;;3.85;;
72524;SDS011;60547;48.502;8.996;2022-12-07T01:06:27;9.50;;;4.05;;
72524;SDS011;60547;48.502;8.996;2022-12-07T01:08:53;7.75;;;4.05;;
72524;SDS011;60547;48.502;8.996;2022-12-07T01:11:20;7.57;;;4.38;;
72524;SDS011;60547;48.502;8.996;2022-12-07T01:13:49;7.68;;;4.35;;
72524;SDS011;60547;48.502;8.996;2022-12-07T01:16:16;7.18;;;3.83;;
72524;SDS011;60547;48.502;8.996;2022-12-07T01:18:45;7.78;;;4.22;;
72524;SDS011;60547;48.502;8.996;2022-12-07T01:21:16;8.82;;;4.93;;
72524;SDS011;60547;48.502;8.996;2022-12-07T01:23:43;8.18;;;4.13;;
72524;SDS011;60547;48.502;8.996;2022-12-07T01:26:10;7.32;;;4.38;;
72524;SDS011;60547;48.502;8.996;2022-12-07T01:28:37;7.97;;;4.22;;
72524;SDS011;60547;48.502;8.996;2022-12-07T01:31:04;8.77;;;4.97;;
72524;SDS011;60547;48.502;8.996;2022-12-07T01:33:32;7.03;;;3.75;;
72524;SDS011;60547;48.502;8.996;2022-12-07T01:38:29;8.43;;;4.68;;
72524;SDS011;60547;48.502;8.996;2022-12-07T01:40:56;7.70;;;4.10;;
72524;SDS011;60547;48.502;8.996;2022-12-07T01:43:22;6.55;;;4.03;;
72524;SDS011;60547;48.502;8.996;2022-12-07T01:45:49;9.23;;;4.40;;
72524;SDS011;60547;48.502;8.996;2022-12-07T01:48:15;8.82;;;4.70;;
72524;SDS011;60547;48.502;8.996;2022-12-07T01:50:45;7.05;;;3.83;;
72524;SDS011;60547;48.502;8.996;2022-12-07T01:53:13;7.97;;;4.00;;
72524;SDS011;60547;48.502;8.996;2022-12-07T01:55:40;7.50;;;4.18;;
72524;SDS011;60547;48.502;8.996;2022-12-07T01:58:09;9.15;;;4.53;;
72524;SDS011;60547;48.502;8.996;2022-12-07T02:00:36;7.78;;;4.13;;
72524;SDS011;60547;48.502;8.996;2022-12-07T02:03:07;7.68;;;3.90;;
72524;SDS011;60547;48.502;8.996;2022-12-07T02:05:37;7.35;;;4.03;;
72524;SDS011;60547;48.502;8.996;2022-12-07T02:08:05;9.15;;;4.22;;
72524;SDS011;60547;48.502;8.996;2022-12-07T02:10:31;7.88;;;4.00;;
72524;SDS011;60547;48.502;8.996;2022-12-07T02:12:59;7.78;;;3.88;;
72524;SDS011;60547;48.502;8.996;2022-12-07T02:15:27;6.22;;;3.70;;
72524;SDS011;60547;48.502;8.996;2022-12-07T02:18:16;7.50;;;3.72;;
72524;SDS011;60547;48.502;8.996;2022-12-07T02:20:57;7.78;;;3.83;;
72524;SDS011;60547;48.502;8.996;2022-12-07T02:29:12;8.30;;;3.95;;
72524;SDS011;60547;48.502;8.996;2022-12-07T02:31:51;6.85;;;3.90;;
72524;SDS011;60547;48.502;8.996;2022-12-07T02:34:41;8.77;;;3.95;;
72524;SDS011;60547;48.502;8.996;2022-12-07T02:40:09;7.63;;;3.53;;
72524;SDS011;60547;48.502;8.996;2022-12-07T02:42:43;6.95;;;4.18;;
72524;SDS011;60547;48.502;8.996;2022-12-07T02:45:14;7.88;;;4.07;;
72524;SDS011;60547;48.502;8.996;2022-12-07T02:47:44;7.93;;;4.25;;
72524;SDS011;60547;48.502;8.996;2022-12-07T02:50:13;8.43;;;4.38;;
72524;SDS011;60547;48.502;8.996;2022-12-07T02:52:39;7.75;;;4.50;;
72524;SDS011;60547;48.502;8.996;2022-12-07T02:55:04;10.25;;;4.78;;
72524;SDS011;60547;48.502;8.996;2022-12-07T02:57:35;9.10;;;5.22;;
72524;SDS011;60547;48.502;8.996;2022-12-07T03:00:23;8.13;;;4.25;;
72524;SDS011;60547;48.502;8.996;2022-12-07T03:03:06;10.13;;;4.50;;
72524;SDS011;60547;48.502;8.996;2022-12-07T03:05:59;8.10;;;4.13;;
72524;SDS011;60547;48.502;8.996;2022-12-07T03:11:23;5.60;;;3.38;;
72524;SDS011;60547;48.502;8.996;2022-12-07T03:14:13;6.35;;;2.95;;
72524;SDS011;60547;48.502;8.996;2022-12-07T03:16:57;6.32;;;3.25;;
72524;SDS011;60547;48.502;8.996;2022-12-07T03:19:27;5.72;;;3.08;;
72524;SDS011;60547;48.502;8.996;2022-12-07T03:21:57;6.68;;;3.20;;
72524;SDS011;60547;48.502;8.996;2022-12-07T03:24:27;5.70;;;3.10;;
72524;SDS011;60547;48.502;8.996;2022-12-07T03:27:03;6.18;;;2.88;;
72524;SDS011;60547;48.502;8.996;2022-12-07T03:29:37;5.63;;;2.58;;
72524;SDS011;60547;48.502;8.996;2022-12-07T03:32:08;5.50;;;2.60;;
72524;SDS011;60547;48.502;8.996;2022-12-07T03:34:41;5.93;;;3.08;;
72524;SDS011;60547;48.502;8.996;2022-12-07T03:37:17;7.32;;;3.35;;
72524;SDS011;60547;48.502;8.996;2022-12-07T03:42:26;6.05;;;3.15;;
72524;SDS011;60547;48.502;8.996;2022-12-07T03:44:51;6.07;;;3.80;;
72524;SDS011;60547;48.502;8.996;2022-12-07T03:49:53;6.45;;;3.50;;
72524;SDS011;60547;48.502;8.996;2022-12-07T03:52:25;7.18;;;3.55;;
72524;SDS011;60547;48.502;8.996;2022-12-07T03:57:45;6.25;;;3.38;;
72524;SDS011;60547;48.502;8.996;2022-12-07T04:00:12;6.97;;;3.15;;
72524;SDS011;60547;48.502;8.996;2022-12-07T04:02:39;6.53;;;3.25;;
72524;SDS011;60547;48.502;8.996;2022-12-07T04:05:05;7.72;;;3.83;;
72524;SDS011;60547;48.502;8.996;2022-12-07T04:07:30;9.00;;;3.60;;
72524;SDS011;60547;48.502;8.996;2022-12-07T04:09:56;6.75;;;3.50;;
72524;SDS011;60547;48.502;8.996;2022-12-07T04:12:22;7.40;;;3.75;;
72524;SDS011;60547;48.502;8.996;2022-12-07T04:14:47;7.10;;;3.67;;
72524;SDS011;60547;48.502;8.996;2022-12-07T04:17:13;8.07;;;4.32;;
72524;SDS011;60547;48.502;8.996;2022-12-07T04:19:38;7.75;;;3.55;;
72524;SDS011;60547;48.502;8.996;2022-12-07T04:22:04;7.30;;;3.88;;
72524;SDS011;60547;48.502;8.996;2022-12-07T04:24:30;7.93;;;4.40;;
72524;SDS011;60547;48.502;8.996;2022-12-07T04:26:56;8.25;;;4.00;;
72524;SDS011;60547;48.502;8.996;2022-12-07T04:29:22;7.35;;;3.78;;
72524;SDS011;60547;48.502;8.996;2022-12-07T04:31:48;7.18;;;3.90;;
72524;SDS011;60547;48.502;8.996;2022-12-07T04:34:14;9.13;;;4.30;;
72524;SDS011;60547;48.502;8.996;2022-12-07T04:36:41;7.88;;;4.13;;
72524;SDS011;60547;48.502;8.996;2022-12-07T04:39:08;8.43;;;3.72;;
72524;SDS011;60547;48.502;8.996;2022-12-07T04:41:38;8.48;;;4.07;;
72524;SDS011;60547;48.502;8.996;2022-12-07T04:44:04;8.45;;;4.20;;
72524;SDS011;60547;48.502;8.996;2022-12-07T04:46:32;6.57;;;3.40;;
72524;SDS011;60547;48.502;8.996;2022-12-07T04:48:58;6.97;;;4.00;;
72524;SDS011;60547;48.502;8.996;2022-12-07T04:51:27;6.90;;;3.70;;
72524;SDS011;60547;48.502;8.996;2022-12-07T04:53:54;7.43;;;3.92;;
72524;SDS011;60547;48.502;8.996;2022-12-07T04:56:20;7.07;;;3.67;;
72524;SDS011;60547;48.502;8.996;2022-12-07T04:58:47;7.75;;;4.40;;
72524;SDS011;60547;48.502;8.996;2022-12-07T05:01:14;8.25;;;4.15;;
72524;SDS011;60547;48.502;8.996;2022-12-07T05:03:41;9.15;;;4.47;;
72524;SDS011;60547;48.502;8.996;2022-12-07T05:06:07;8.90;;;3.85;;
72524;SDS011;60547;48.502;8.996;2022-12-07T05:08:34;7.15;;;4.00;;
72524;SDS011;60547;48.502;8.996;2022-12-07T05:11:00;8.00;;;4.13;;
72524;SDS011;60547;48.502;8.996;2022-12-07T05:13:26;9.05;;;4.30;;
72524;SDS011;60547;48.502;8.996;2022-12-07T05:15:52;7.28;;;3.67;;
72524;SDS011;60547;48.502;8.996;2022-12-07T05:18:17;6.65;;;3.65;;
72524;SDS011;60547;48.502;8.996;2022-12-07T05:20:43;8.98;;;4.13;;
72524;SDS011;60547;48.502;8.996;2022-12-07T05:23:09;7.68;;;4.20;;
72524;SDS011;60547;48.502;8.996;2022-12-07T05:25:35;8.68;;;4.60;;
72524;SDS011;60547;48.502;8.996;2022-12-07T05:28:01;8.45;;;3.75;;
72524;SDS011;60547;48.502;8.996;2022-12-07T05:30:26;7.97;;;3.60;;
72524;SDS011;60547;48.502;8.996;2022-12-07T05:32:52;9.45;;;4.65;;
72524;SDS011;60547;48.502;8.996;2022-12-07T05:35:17;8.90;;;3.97;;
72524;SDS011;60547;48.502;8.996;2022-12-07T05:37:43;8.68;;;4.10;;
72524;SDS011;60547;48.502;8.996;2022-12-07T05:40:09;8.35;;;3.60;;
72524;SDS011;60547;48.502;8.996;2022-12-07T05:42:39;8.90;;;4.25;;
72524;SDS011;60547;48.502;8.996;2022-12-07T05:45:06;8.40;;;4.50;;
72524;SDS011;60547;48.502;8.996;2022-12-07T05:47:32;7.00;;;3.80;;
72524;SDS011;60547;48.502;8.996;2022-12-07T05:49:58;6.85;;;3.72;;
72524;SDS011;60547;48.502;8.996;2022-12-07T05:52:23;6.90;;;3.60;;
72524;SDS011;60547;48.502;8.996;2022-12-07T05:54:49;6.32;;;3.53;;
72524;SDS011;60547;48.502;8.996;2022-12-07T05:57:14;8.13;;;3.60;;
72524;SDS011;60547;48.502;8.996;2022-12-07T05:59:40;8.27;;;4.00;;
72524;SDS011;60547;48.502;8.996;2022-12-07T06:02:07;7.60;;;3.53;;
72524;SDS011;60547;48.502;8.996;2022-12-07T06:04:37;7.95;;;3.90;;
72524;SDS011;60547;48.502;8.996;2022-12-07T06:07:05;7.70;;;4.15;;
72524;SDS011;60547;48.502;8.996;2022-12-07T06:09:31;7.20;;;3.60;;
72524;SDS011;60547;48.502;8.996;2022-12-07T06:11:58;9.48;;;4.18;;
72524;SDS011;60547;48.502;8.996;2022-12-07T06:14:42;6.60;;;4.07;;
72524;SDS011;60547;48.502;8.996;2022-12-07T06:17:08;7.30;;;3.63;;
72524;SDS011;60547;48.502;8.996;2022-12-07T06:19:34;6.97;;;4.07;;
72524;SDS011;60547;48.502;8.996;2022-12-07T06:22:00;7.57;;;4.47;;
72524;SDS011;60547;48.502;8.996;2022-12-07T06:24:26;6.93;;;4.40;;
72524;SDS011;60547;48.502;8.996;2022-12-07T06:26:51;9.25;;;4.82;;
72524;SDS011;60547;48.502;8.996;2022-12-07T06:29:17;7.97;;;4.78;;
72524;SDS011;60547;48.502;8.996;2022-12-07T06:31:43;8.32;;;3.67;;
72524;SDS011;60547;48.502;8.996;2022-12-07T06:34:10;7.70;;;4.38;;
72524;SDS011;60547;48.502;8.996;2022-12-07T06:36:38;8.02;;;4.35;;
72524;SDS011;60547;48.502;8.996;2022-12-07T06:39:04;8.07;;;4.43;;
72524;SDS011;60547;48.502;8.996;2022-12-07T06:41:30;7.40;;;3.90;;
72524;SDS011;60547;48.502;8.996;2022-12-07T06:43:56;6.75;;;3.85;;
72524;SDS011;60547;48.502;8.996;2022-12-07T06:46:22;8.38;;;3.42;;
72524;SDS011;60547;48.502;8.996;2022-12-07T06:48:47;7.25;;;3.70;;
72524;SDS011;60547;48.502;8.996;2022-12-07T06:51:13;8.43;;;4.05;;
72524;SDS011;60547;48.502;8.996;2022-12-07T06:53:38;7.55;;;3.63;;
72524;SDS011;60547;48.502;8.996;2022-12-07T06:56:04;8.45;;;4.63;;
72524;SDS011;60547;48.502;8.996;2022-12-07T06:58:30;7.40;;;3.92;;
72524;SDS011;60547;48.502;8.996;2022-12-07T07:00:55;7.30;;;4.22;;
72524;SDS011;60547;48.502;8.996;2022-12-07T07:03:21;9.15;;;4.30;;
72524;SDS011;60547;48.502;8.996;2022-12-07T07:05:46;11.35;;;5.53;;
72524;SDS011;60547;48.502;8.996;2022-12-07T07:08:12;10.93;;;5.70;;
72524;SDS011;60547;48.502;8.996;2022-12-07T07:10:38;11.50;;;5.78;;
72524;SDS011;60547;48.502;8.996;2022-12-07T07:13:04;7.57;;;4.93;;
72524;SDS011;60547;48.502;8.996;2022-12-07T07:15:31;8.98;;;4.40;;
72524;SDS011;60547;48.502;8.996;2022-12-07T07:17:57;10.25;;;5.55;;
72524;SDS011;60547;48.502;8.996;2022-12-07T07:20:22;10.65;;;5.53;;
72524;SDS011;60547;48.502;8.996;2022-12-07T07:22:48;10.48;;;5.60;;
72524;SDS011;60547;48.502;8.996;2022-12-07T07:25:14;10.13;;;5.63;;
72524;SDS011;60547;48.502;8.996;2022-12-07T07:27:40;9.98;;;5.72;;
72524;SDS011;60547;48.502;8.996;2022-12-07T07:30:05;12.98;;;5.85;;
72524;SDS011;60547;48.502;8.996;2022-12-07T07:32:31;9.90;;;6.53;;
72524;SDS011;60547;48.502;8.996;2022-12-07T07:34:57;11.27;;;5.80;;
72524;SDS011;60547;48.502;8.996;2022-12-07T07:37:22;11.13;;;7.05;;
72524;SDS011;60547;48.502;8.996;2022-12-07T07:39:48;10.25;;;6.13;;
72524;SDS011;60547;48.502;8.996;2022-12-07T07:42:14;12.82;;;6.22;;
72524;SDS011;60547;48.502;8.996;2022-12-07T07:44:40;9.70;;;5.95;;
72524;SDS011;60547;48.502;8.996;2022-12-07T07:47:05;13.27;;;7.72;;
72524;SDS011;60547;48.502;8.996;2022-12-07T07:49:31;12.82;;;7.53;;
72524;SDS011;60547;48.502;8.996;2022-12-07T07:51:56;11.45;;;6.53;;
72524;SDS011;60547;48.502;8.996;2022-12-07T07:54:21;10.57;;;6.50;;
72524;SDS011;60547;48.502;8.996;2022-12-07T07:56:47;14.98;;;8.88;;
72524;SDS011;60547;48.502;8.996;2022-12-07T07:59:12;14.65;;;9.18;;
72524;SDS011;60547;48.502;8.996;2022-12-07T08:01:39;15.68;;;8.65;;
72524;SDS011;60547;48.502;8.996;2022-12-07T08:04:05;11.27;;;7.38;;
72524;SDS011;60547;48.502;8.996;2022-12-07T08:06:31;10.73;;;6.68;;
72524;SDS011;60547;48.502;8.996;2022-12-07T08:08:57;11.93;;;5.93;;
72524;SDS011;60547;48.502;8.996;2022-12-07T08:11:23;12.15;;;6.20;;
72524;SDS011;60547;48.502;8.996;2022-12-07T08:13:49;10.32;;;5.88;;
72524;SDS011;60547;48.502;8.996;2022-12-07T08:16:15;9.75;;;5.38;;
72524;SDS011;60547;48.502;8.996;2022-12-07T08:18:41;11.20;;;5.72;;
72524;SDS011;60547;48.502;8.996;2022-12-07T08:21:08;11.88;;;6.28;;
72524;SDS011;60547;48.502;8.996;2022-12-07T08:23:36;9.85;;;6.15;;
72524;SDS011;60547;48.502;8.996;2022-12-07T08:26:03;12.02;;;5.43;;
72524;SDS011;60547;48.502;8.996;2022-12-07T08:28:31;10.40;;;5.28;;
72524;SDS011;60547;48.502;8.996;2022-12-07T08:30:59;12.25;;;6.45;;
72524;SDS011;60547;48.502;8.996;2022-12-07T08:33:32;10.20;;;5.45;;
72524;SDS011;60547;48.502;8.996;2022-12-07T08:36:01;11.75;;;6.05;;
72524;SDS011;60547;48.502;8.996;2022-12-07T08:38:28;9.82;;;5.18;;
72524;SDS011;60547;48.502;8.996;2022-12-07T08:40:54;10.68;;;4.93;;
72524;SDS011;60547;48.502;8.996;2022-12-07T08:43:20;9.35;;;5.05;;
72524;SDS011;60547;48.502;8.996;2022-12-07T08:45:46;9.77;;;5.30;;
72524;SDS011;60547;48.502;8.996;2022-12-07T08:48:13;9.52;;;5.43;;
72524;SDS011;60547;48.502;8.996;2022-12-07T08:50:42;9.77;;;5.82;;
72524;SDS011;60547;48.502;8.996;2022-12-07T08:53:07;10.63;;;5.13;;
72524;SDS011;60547;48.502;8.996;2022-12-07T08:55:33;12.25;;;5.95;;
72524;SDS011;60547;48.502;8.996;2022-12-07T08:57:59;10.20;;;5.25;;
72524;SDS011;60547;48.502;8.996;2022-12-07T09:00:27;10.40;;;5.47;;
72524;SDS011;60547;48.502;8.996;2022-12-07T09:02:53;11.57;;;5.50;;
72524;SDS011;60547;48.502;8.996;2022-12-07T09:05:18;11.95;;;6.05;;
72524;SDS011;60547;48.502;8.996;2022-12-07T09:07:45;11.57;;;5.60;;
72524;SDS011;60547;48.502;8.996;2022-12-07T09:10:13;10.60;;;5.75;;
72524;SDS011;60547;48.502;8.996;2022-12-07T09:12:38;9.43;;;5.32;;
72524;SDS011;60547;48.502;8.996;2022-12-07T09:15:04;9.65;;;5.40;;
72524;SDS011;60547;48.502;8.996;2022-12-07T09:17:31;13.32;;;6.32;;
72524;SDS011;60547;48.502;8.996;2022-12-07T09:19:58;12.43;;;6.05;;
72524;SDS011;60547;48.502;8.996;2022-12-07T09:22:27;13.73;;;6.88;;
72524;SDS011;60547;48.502;8.996;2022-12-07T09:24:54;11.80;;;5.95;;
72524;SDS011;60547;48.502;8.996;2022-12-07T09:27:19;12.05;;;6.88;;
72524;SDS011;60547;48.502;8.996;2022-12-07T09:29:45;11.88;;;6.75;;
72524;SDS011;60547;48.502;8.996;2022-12-07T09:32:10;11.77;;;5.97;;
72524;SDS011;60547;48.502;8.996;2022-12-07T09:34:36;13.43;;;5.95;;
72524;SDS011;60547;48.502;8.996;2022-12-07T09:37:01;9.35;;;5.13;;
72524;SDS011;60547;48.502;8.996;2022-12-07T09:39:28;10.43;;;5.60;;
72524;SDS011;60547;48.502;8.996;2022-12-07T09:41:54;11.73;;;6.32;;
72524;SDS011;60547;48.502;8.996;2022-12-07T09:44:25;12.20;;;6.25;;
72524;SDS011;60547;48.502;8.996;2022-12-07T09:46:52;9.50;;;5.55;;
72524;SDS011;60547;48.502;8.996;2022-12-07T09:49:22;10.90;;;5.65;;
72524;SDS011;60547;48.502;8.996;2022-12-07T09:51:59;10.80;;;5.90;;
72524;SDS011;60547;48.502;8.996;2022-12-07T09:54:27;9.90;;;5.57;;
72524;SDS011;60547;48.502;8.996;2022-12-07T09:56:54;9.65;;;5.35;;
72524;SDS011;60547;48.502;8.996;2022-12-07T09:59:20;11.10;;;6.35;;
72524;SDS011;60547;48.502;8.996;2022-12-07T10:01:48;9.77;;;5.50;;
72524;SDS011;60547;48.502;8.996;2022-12-07T10:04:16;8.00;;;4.78;;
72524;SDS011;60547;48.502;8.996;2022-12-07T10:06:46;8.60;;;4.65;;
72524;SDS011;60547;48.502;8.996;2022-12-07T10:09:13;10.35;;;4.82;;
72524;SDS011;60547;48.502;8.996;2022-12-07T10:14:34;8.80;;;4.85;;
72524;SDS011;60547;48.502;8.996;2022-12-07T10:17:01;9.95;;;4.55;;
72524;SDS011;60547;48.502;8.996;2022-12-07T10:19:30;8.43;;;4.43;;
72524;SDS011;60547;48.502;8.996;2022-12-07T10:21:59;8.52;;;5.05;;
72524;SDS011;60547;48.502;8.996;2022-12-07T10:24:30;9.50;;;5.00;;
72524;SDS011;60547;48.502;8.996;2022-12-07T10:26:56;15.38;;;8.35;;
72524;SDS011;60547;48.502;8.996;2022-12-07T10:31:58;7.90;;;4.50;;
72524;SDS011;60547;48.502;8.996;2022-12-07T10:34:25;8.05;;;4.65;;
72524;SDS011;60547;48.502;8.996;2022-12-07T10:37:11;8.65;;;5.50;;
72524;SDS011;60547;48.502;8.996;2022-12-07T10:39:42;8.55;;;4.53;;
72524;SDS011;60547;48.502;8.996;2022-12-07T10:42:23;10.45;;;4.57;;
72524;SDS011;60547;48.502;8.996;2022-12-07T10:44:50;9.50;;;4.80;;
72524;SDS011;60547;48.502;8.996;2022-12-07T10:48:15;11.23;;;4.97;;
72524;SDS011;60547;48.502;8.996;2022-12-07T10:50:48;10.00;;;4.65;;
72524;SDS011;60547;48.502;8.996;2022-12-07T10:59:31;7.32;;;3.88;;
72524;SDS011;60547;48.502;8.996;2022-12-07T11:07:38;9.40;;;5.07;;
72524;SDS011;60547;48.502;8.996;2022-12-07T11:10:13;7.40;;;4.30;;
72524;SDS011;60547;48.502;8.996;2022-12-07T11:13:11;8.73;;;4.78;;
72524;SDS011;60547;48.502;8.996;2022-12-07T11:15:54;7.18;;;3.83;;
72524;SDS011;60547;48.502;8.996;2022-12-07T11:21:19;9.30;;;4.53;;
72524;SDS011;60547;48.502;8.996;2022-12-07T11:23:59;8.63;;;4.60;;
72524;SDS011;60547;48.502;8.996;2022-12-07T11:29:32;10.25;;;5.30;;
72524;SDS011;60547;48.502;8.996;2022-12-07T11:37:31;9.15;;;4.60;;
72524;SDS011;60547;48.502;8.996;2022-12-07T11:40:00;8.63;;;4.28;;
72524;SDS011;60547;48.502;8.996;2022-12-07T11:42:42;10.52;;;4.57;;
72524;SDS011;60547;48.502;8.996;2022-12-07T11:45:16;10.13;;;4.78;;
72524;SDS011;60547;48.502;8.996;2022-12-07T11:48:02;11.50;;;5.32;;
72524;SDS011;60547;48.502;8.996;2022-12-07T11:53:19;13.73;;;6.35;;
72524;SDS011;60547;48.502;8.996;2022-12-07T11:55:52;11.80;;;5.35;;
72524;SDS011;60547;48.502;8.996;2022-12-07T12:00:51;14.20;;;5.68;;
72524;SDS011;60547;48.502;8.996;2022-12-07T12:03:31;12.10;;;4.63;;
72524;SDS011;60547;48.502;8.996;2022-12-07T12:06:02;9.10;;;4.20;;
72524;SDS011;60547;48.502;8.996;2022-12-07T12:08:29;8.50;;;4.20;;
72524;SDS011;60547;48.502;8.996;2022-12-07T12:11:03;8.77;;;4.43;;
72524;SDS011;60547;48.502;8.996;2022-12-07T12:24:47;9.13;;;4.45;;
72524;SDS011;60547;48.502;8.996;2022-12-07T12:27:27;9.88;;;4.97;;
72524;SDS011;60547;48.502;8.996;2022-12-07T12:29:56;8.27;;;4.57;;
72524;SDS011;60547;48.502;8.996;2022-12-07T12:32:37;8.25;;;4.32;;
72524;SDS011;60547;48.502;8.996;2022-12-07T12:37:52;9.45;;;4.78;;
72524;SDS011;60547;48.502;8.996;2022-12-07T12:45:31;8.05;;;4.20;;
72524;SDS011;60547;48.502;8.996;2022-12-07T12:48:01;6.90;;;3.95;;
72524;SDS011;60547;48.502;8.996;2022-12-07T12:50:37;9.70;;;4.43;;
72524;SDS011;60547;48.502;8.996;2022-12-07T12:53:16;7.68;;;4.03;;
72524;SDS011;60547;48.502;8.996;2022-12-07T12:58:39;7.30;;;3.88;;
72524;SDS011;60547;48.502;8.996;2022-12-07T13:01:48;7.95;;;4.03;;
72524;SDS011;60547;48.502;8.996;2022-12-07T13:06:32;7.57;;;3.83;;
72524;SDS011;60547;48.502;8.996;2022-12-07T13:09:01;9.60;;;4.82;;
72524;SDS011;60547;48.502;8.996;2022-12-07T13:13:52;8.30;;;4.43;;
72524;SDS011;60547;48.502;8.996;2022-12-07T13:18:43;9.43;;;4.60;;
72524;SDS011;60547;48.502;8.996;2022-12-07T13:28:48;8.65;;;4.20;;
72524;SDS011;60547;48.502;8.996;2022-12-07T13:31:43;8.52;;;4.22;;
72524;SDS011;60547;48.502;8.996;2022-12-07T13:37:15;9.30;;;4.90;;
72524;SDS011;60547;48.502;8.996;2022-12-07T13:44:49;10.48;;;5.38;;
72524;SDS011;60547;48.502;8.996;2022-12-07T13:50:00;10.98;;;4.25;;
72524;SDS011;60547;48.502;8.996;2022-12-07T13:52:27;7.10;;;3.67;;
72524;SDS011;60547;48.502;8.996;2022-12-07T13:54:58;8.75;;;4.40;;
72524;SDS011;60547;48.502;8.996;2022-12-07T13:59:51;6.25;;;3.50;;
72524;SDS011;60547;48.502;8.996;2022-12-07T14:02:25;8.35;;;3.55;;
72524;SDS011;60547;48.502;8.996;2022-12-07T14:05:05;8.18;;;3.78;;
72524;SDS011;60547;48.502;8.996;2022-12-07T14:10:53;7.53;;;3.80;;
72524;SDS011;60547;48.502;8.996;2022-12-07T14:16:23;6.60;;;3.60;;
72524;SDS011;60547;48.502;8.996;2022-12-07T14:18:54;7.30;;;3.80;;
72524;SDS011;60547;48.502;8.996;2022-12-07T14:21:23;7.60;;;3.78;;
72524;SDS011;60547;48.502;8.996;2022-12-07T14:24:07;9.35;;;3.67;;
72524;SDS011;60547;48.502;8.996;2022-12-07T14:26:40;8.23;;;3.50;;
72524;SDS011;60547;48.502;8.996;2022-12-07T14:29:27;7.13;;;3.70;;
72524;SDS011;60547;48.502;8.996;2022-12-07T14:32:08;7.25;;;3.40;;
72524;SDS011;60547;48.502;8.996;2022-12-07T14:34:58;7.82;;;3.88;;
72524;SDS011;60547;48.502;8.996;2022-12-07T14:37:33;7.50;;;3.70;;
72524;SDS011;60547;48.502;8.996;2022-12-07T14:39:58;7.18;;;3.42;;
72524;SDS011;60547;48.502;8.996;2022-12-07T14:42:26;7.43;;;3.40;;
72524;SDS011;60547;48.502;8.996;2022-12-07T14:44:54;6.53;;;3.25;;
72524;SDS011;60547;48.502;8.996;2022-12-07T14:47:20;7.03;;;3.92;;
72524;SDS011;60547;48.502;8.996;2022-12-07T14:49:46;7.75;;;3.58;;
72524;SDS011;60547;48.502;8.996;2022-12-07T14:52:13;7.55;;;3.50;;
72524;SDS011;60547;48.502;8.996;2022-12-07T14:54:42;8.55;;;4.95;;
72524;SDS011;60547;48.502;8.996;2022-12-07T14:57:11;8.20;;;4.07;;
72524;SDS011;60547;48.502;8.996;2022-12-07T14:59:36;10.23;;;3.40;;
72524;SDS011;60547;48.502;8.996;2022-12-07T15:02:02;7.05;;;3.97;;
72524;SDS011;60547;48.502;8.996;2022-12-07T15:04:28;5.45;;;2.85;;
72524;SDS011;60547;48.502;8.996;2022-12-07T15:06:57;6.35;;;3.47;;
72524;SDS011;60547;48.502;8.996;2022-12-07T15:09:24;6.32;;;2.90;;
72524;SDS011;60547;48.502;8.996;2022-12-07T15:11:50;5.60;;;2.75;;
72524;SDS011;60547;48.502;8.996;2022-12-07T15:14:15;5.13;;;2.67;;
72524;SDS011;60547;48.502;8.996;2022-12-07T15:16:42;5.25;;;2.80;;
72524;SDS011;60547;48.502;8.996;2022-12-07T15:19:10;4.95;;;2.72;;
72524;SDS011;60547;48.502;8.996;2022-12-07T15:21:38;4.25;;;2.40;;
72524;SDS011;60547;48.502;8.996;2022-12-07T15:24:03;5.03;;;2.53;;
72524;SDS011;60547;48.502;8.996;2022-12-07T15:26:29;7.07;;;2.95;;
72524;SDS011;60547;48.502;8.996;2022-12-07T15:28:54;6.25;;;2.85;;
72524;SDS011;60547;48.502;8.996;2022-12-07T15:31:20;6.22;;;2.85;;
72524;SDS011;60547;48.502;8.996;2022-12-07T15:33:45;8.65;;;2.92;;
72524;SDS011;60547;48.502;8.996;2022-12-07T15:36:25;6.00;;;2.75;;
72524;SDS011;60547;48.502;8.996;2022-12-07T15:38:53;6.15;;;3.03;;
72524;SDS011;60547;48.502;8.996;2022-12-07T15:41:19;5.20;;;2.55;;
72524;SDS011;60547;48.502;8.996;2022-12-07T15:43:45;5.35;;;2.63;;
72524;SDS011;60547;48.502;8.996;2022-12-07T15:46:33;5.70;;;2.42;;
72524;SDS011;60547;48.502;8.996;2022-12-07T15:49:09;6.20;;;2.90;;
72524;SDS011;60547;48.502;8.996;2022-12-07T15:51:36;5.38;;;2.50;;
72524;SDS011;60547;48.502;8.996;2022-12-07T15:54:02;6.55;;;3.20;;
72524;SDS011;60547;48.502;8.996;2022-12-07T15:56:27;5.28;;;2.58;;
72524;SDS011;60547;48.502;8.996;2022-12-07T15:58:53;6.00;;;3.28;;
72524;SDS011;60547;48.502;8.996;2022-12-07T16:01:19;10.45;;;5.13;;
72524;SDS011;60547;48.502;8.996;2022-12-07T16:03:45;14.50;;;5.75;;
72524;SDS011;60547;48.502;8.996;2022-12-07T16:06:11;28.73;;;14.98;;
72524;SDS011;60547;48.502;8.996;2022-12-07T16:08:41;28.05;;;12.98;;
72524;SDS011;60547;48.502;8.996;2022-12-07T16:11:07;19.90;;;9.73;;
72524;SDS011;60547;48.502;8.996;2022-12-07T16:13:33;10.25;;;5.25;;
72524;SDS011;60547;48.502;8.996;2022-12-07T16:16:02;7.57;;;3.90;;
72524;SDS011;60547;48.502;8.996;2022-12-07T16:18:32;7.20;;;3.35;;
72524;SDS011;60547;48.502;8.996;2022-12-07T16:20:58;5.82;;;3.10;;
72524;SDS011;60547;48.502;8.996;2022-12-07T16:23:24;5.60;;;3.17;;
72524;SDS011;60547;48.502;8.996;2022-12-07T16:25:49;5.45;;;2.80;;
72524;SDS011;60547;48.502;8.996;2022-12-07T16:28:14;5.25;;;2.90;;
72524;SDS011;60547;48.502;8.996;2022-12-07T16:30:40;6.40;;;3.33;;
72524;SDS011;60547;48.502;8.996;2022-12-07T16:33:05;5.40;;;3.30;;
72524;SDS011;60547;48.502;8.996;2022-12-07T16:35:31;8.40;;;3.67;;
72524;SDS011;60547;48.502;8.996;2022-12-07T16:37:56;8.68;;;4.90;;
72524;SDS011;60547;48.502;8.996;2022-12-07T16:40:21;6.88;;;3.67;;
72524;SDS011;60547;48.502;8.996;2022-12-07T16:42:47;7.90;;;4.50;;
72524;SDS011;60547;48.502;8.996;2022-12-07T16:45:12;7.53;;;4.13;;
72524;SDS011;60547;48.502;8.996;2022-12-07T16:47:38;8.60;;;4.38;;